Time;durP1;ratioP1;P1;durP2;ratioP2;P2;SDS_P1;SDS_P2;PMS_P1;PMS_P2;Temp;Humidity;BMP_temperature;BMP_pressure;BME280_temperature;BME280_humidity;BME280_pressure;Samples;Min_cycle;Max_cycle;Signal;HPM_P1;HPM_P2
2022/05/12 06:02:59;;;;;;;4.90;2.47;;;;;;;;;;10758606;27;20897;-85
2022/05/12 06:08:15;;;;;;;4.78;2.55;;;;;;;;;;10716643;27;20468;-86
2022/05/12 06:13:47;;;;;;;7.22;3.33;;;;;;;;;;10714420;27;20034;-86
2022/05/12 06:18:57;;;;;;;6.53;3.03;;;;;;;;;;10693643;27;20058;-86
2022/05/12 06:24:36;;;;;;;4.50;3.13;;;;;;;;;;10703451;27;20042;-86
2022/05/12 06:29:41;;;;;;;7.22;3.38;;;;;;;;;;10658640;27;20062;-86
2022/05/12 06:34:47;;;;;;;6.97;3.88;;;;;;;;;;10710887;27;20490;-86
2022/05/12 06:40:13;;;;;;;3.80;2.15;;;;;;;;;;10710549;27;20090;-86
2022/05/12 06:45:32;;;;;;;6.20;3.88;;;;;;;;;;10710708;27;20063;-84
2022/05/12 06:50:43;;;;;;;4.18;1.90;;;;;;;;;;10709161;27;20156;-85
2022/05/12 07:01:12;;;;;;;3.30;1.08;;;;;;;;;;10618139;27;20415;-83
2022/05/12 07:06:13;;;;;;;2.90;1.70;;;;;;;;;;10721661;27;20023;-84
2022/05/12 07:11:14;;;;;;;3.25;1.77;;;;;;;;;;10704098;27;20027;-84
2022/05/12 07:16:15;;;;;;;3.30;1.27;;;;;;;;;;10688420;27;20025;-83
2022/05/12 07:26:47;;;;;;;4.85;1.92;;;;;;;;;;10687255;27;20038;-84
2022/05/12 07:31:51;;;;;;;5.15;2.55;;;;;;;;;;10689812;27;20023;-84
2022/05/12 07:36:54;;;;;;;5.22;2.60;;;;;;;;;;10687776;27;20465;-84
2022/05/12 07:42:15;;;;;;;4.57;3.05;;;;;;;;;;10686152;27;20023;-84
2022/05/12 07:47:16;;;;;;;6.40;4.10;;;;;;;;;;10673285;27;20113;-84
2022/05/12 07:52:26;;;;;;;5.80;4.20;;;;;;;;;;10687229;27;20039;-84
2022/05/12 07:57:32;;;;;;;5.35;4.00;;;;;;;;;;10685451;27;20448;-84
2022/05/12 08:02:35;;;;;;;6.85;4.85;;;;;;;;;;10688925;27;20054;-84
2022/05/12 08:07:37;;;;;;;5.65;4.60;;;;;;;;;;10689143;27;20071;-84
2022/05/12 08:12:38;;;;;;;7.68;4.35;;;;;;;;;;10668914;27;20488;-83
2022/05/12 08:17:40;;;;;;;6.10;4.43;;;;;;;;;;10685808;27;20023;-83
2022/05/12 08:22:41;;;;;;;4.88;4.00;;;;;;;;;;10685391;27;20021;-83
2022/05/12 08:27:42;;;;;;;6.20;3.70;;;;;;;;;;10669307;27;20022;-83
2022/05/12 08:32:44;;;;;;;5.50;3.53;;;;;;;;;;10685344;27;20026;-83
2022/05/12 08:37:46;;;;;;;5.97;4.05;;;;;;;;;;10685646;27;20111;-83
2022/05/12 08:42:49;;;;;;;6.55;3.97;;;;;;;;;;10669430;27;20031;-84
2022/05/12 08:47:51;;;;;;;4.47;2.85;;;;;;;;;;10686612;27;20042;-83
2022/05/12 08:53:02;;;;;;;6.05;3.67;;;;;;;;;;10687350;27;20127;-84
2022/05/12 08:58:07;;;;;;;7.78;3.10;;;;;;;;;;10705709;27;20035;-82
2022/05/12 09:03:28;;;;;;;4.50;3.22;;;;;;;;;;10716551;27;20130;-83
2022/05/12 09:08:33;;;;;;;4.13;2.78;;;;;;;;;;10697872;27;20519;-83
2022/05/12 09:13:36;;;;;;;4.30;3.30;;;;;;;;;;10713957;27;20022;-83
2022/05/12 09:18:37;;;;;;;7.75;3.72;;;;;;;;;;10708197;27;20014;-82
2022/05/12 09:23:39;;;;;;;4.47;3.47;;;;;;;;;;10687589;27;20076;-83
2022/05/12 09:28:44;;;;;;;6.00;3.60;;;;;;;;;;10685120;27;20071;-82
2022/05/12 09:33:50;;;;;;;6.70;4.22;;;;;;;;;;10680517;27;20070;-83
2022/05/12 09:38:55;;;;;;;5.03;3.20;;;;;;;;;;10681674;27;20178;-83
2022/05/12 09:43:56;;;;;;;3.70;2.80;;;;;;;;;;10681794;27;20027;-84
2022/05/12 09:49:18;;;;;;;7.22;4.00;;;;;;;;;;10680119;27;20037;-85
2022/05/12 09:54:26;;;;;;;7.80;4.45;;;;;;;;;;10683841;27;20030;-83
2022/05/12 09:59:31;;;;;;;6.20;3.90;;;;;;;;;;10679639;27;20031;-83
2022/05/12 10:09:57;;;;;;;4.22;2.97;;;;;;;;;;10681707;27;20027;-83
2022/05/12 10:15:04;;;;;;;4.75;3.42;;;;;;;;;;10682242;27;20117;-83
2022/05/12 10:20:25;;;;;;;5.88;3.38;;;;;;;;;;10672393;27;20022;-82
2022/05/12 10:25:47;;;;;;;6.50;3.72;;;;;;;;;;10672378;27;20050;-81
2022/05/12 10:30:51;;;;;;;7.03;4.80;;;;;;;;;;10674826;27;20015;-80
2022/05/12 10:35:52;;;;;;;6.38;3.95;;;;;;;;;;10672212;27;20027;-80
2022/05/12 10:40:56;;;;;;;5.22;4.05;;;;;;;;;;10674405;27;20034;-81
2022/05/12 10:46:11;;;;;;;4.97;3.70;;;;;;;;;;10674755;27;20022;-80
2022/05/12 10:51:15;;;;;;;11.38;10.18;;;;;;;;;;10681451;27;20023;-81
2022/05/12 10:56:32;;;;;;;9.00;5.53;;;;;;;;;;10680261;27;20097;-80
2022/05/12 11:01:43;;;;;;;7.90;6.30;;;;;;;;;;10678504;27;20133;-81
2022/05/12 11:06:47;;;;;;;7.07;5.07;;;;;;;;;;10679370;27;20022;-81
2022/05/12 11:11:50;;;;;;;7.85;5.07;;;;;;;;;;10683166;27;20023;-83
2022/05/12 11:17:02;;;;;;;7.90;4.80;;;;;;;;;;10682288;27;20044;-81
2022/05/12 11:22:07;;;;;;;5.60;4.40;;;;;;;;;;10682341;27;20107;-81
2022/05/12 11:27:18;;;;;;;7.93;4.50;;;;;;;;;;10685078;27;20079;-82
2022/05/12 11:32:42;;;;;;;8.88;7.40;;;;;;;;;;10684551;27;20023;-82
2022/05/12 11:37:43;;;;;;;6.22;4.63;;;;;;;;;;10687347;27;20042;-82
2022/05/12 11:48:39;;;;;;;8.93;5.03;;;;;;;;;;10712201;27;20043;-81
2022/05/12 11:53:53;;;;;;;6.47;4.70;;;;;;;;;;10720464;27;20015;-82
2022/05/12 11:59:12;;;;;;;6.05;3.80;;;;;;;;;;10716945;27;20022;-82
2022/05/12 12:04:13;;;;;;;5.28;4.15;;;;;;;;;;10709963;27;20039;-82
2022/05/12 12:09:33;;;;;;;7.10;4.10;;;;;;;;;;10697754;27;20023;-82
2022/05/12 12:14:44;;;;;;;17.75;14.57;;;;;;;;;;10688722;27;20019;-82
2022/05/12 12:19:49;;;;;;;5.88;4.82;;;;;;;;;;10680920;27;20038;-84
2022/05/12 12:25:01;;;;;;;7.35;4.38;;;;;;;;;;10682444;27;20083;-83
2022/05/12 12:30:19;;;;;;;5.05;4.55;;;;;;;;;;10688240;27;20026;-84
2022/05/12 12:35:20;;;;;;;6.00;4.68;;;;;;;;;;10709873;27;20094;-81
2022/05/12 12:40:41;;;;;;;7.03;4.57;;;;;;;;;;10708413;27;20026;-81
2022/05/12 12:45:47;;;;;;;5.68;4.80;;;;;;;;;;10710058;27;20029;-83
2022/05/12 12:50:54;;;;;;;5.53;4.45;;;;;;;;;;10687777;27;20034;-82
2022/05/12 13:01:23;;;;;;;4.95;4.07;;;;;;;;;;10681812;27;20547;-82
2022/05/12 13:06:34;;;;;;;5.95;3.70;;;;;;;;;;10680382;27;20023;-82
2022/05/12 13:11:38;;;;;;;5.97;4.13;;;;;;;;;;10676878;27;20026;-83
2022/05/12 13:16:43;;;;;;;4.38;3.40;;;;;;;;;;10677114;27;20113;-84
2022/05/12 13:21:47;;;;;;;5.65;3.70;;;;;;;;;;10681064;27;20113;-83
2022/05/12 13:26:50;;;;;;;4.30;3.42;;;;;;;;;;10664321;27;20033;-83
2022/05/12 13:32:02;;;;;;;5.22;3.80;;;;;;;;;;10684909;27;20019;-84
2022/05/12 13:37:14;;;;;;;6.20;4.55;;;;;;;;;;10686179;27;20508;-83
2022/05/12 13:42:19;;;;;;;7.53;3.80;;;;;;;;;;10706264;27;20031;-85
2022/05/12 13:47:45;;;;;;;5.95;3.97;;;;;;;;;;10716431;27;20052;-84
2022/05/12 13:53:18;;;;;;;5.30;3.80;;;;;;;;;;10694126;27;20094;-85
2022/05/12 13:58:29;;;;;;;5.30;4.13;;;;;;;;;;10709600;27;20038;-82
2022/05/12 14:03:34;;;;;;;3.92;3.30;;;;;;;;;;10698543;27;20046;-84
2022/05/12 14:08:35;;;;;;;7.10;3.60;;;;;;;;;;10688589;27;20035;-83
2022/05/12 14:19:21;;;;;;;5.43;3.45;;;;;;;;;;10684367;27;20023;-84
2022/05/12 14:24:26;;;;;;;6.35;3.55;;;;;;;;;;10690549;27;20403;-85
2022/05/12 14:29:28;;;;;;;6.10;3.00;;;;;;;;;;10688454;27;20440;-82
2022/05/12 14:34:29;;;;;;;5.82;3.60;;;;;;;;;;10689158;27;20106;-85
2022/05/12 14:39:33;;;;;;;3.85;3.00;;;;;;;;;;10687225;27;20030;-83
2022/05/12 14:44:35;;;;;;;4.07;2.88;;;;;;;;;;10686327;27;20026;-83
2022/05/12 14:49:42;;;;;;;5.03;3.20;;;;;;;;;;10687383;27;20019;-82
2022/05/12 14:54:43;;;;;;;6.70;3.40;;;;;;;;;;10687720;27;20022;-82
2022/05/12 14:59:45;;;;;;;6.45;4.05;;;;;;;;;;10690602;27;20054;-84
2022/05/12 15:04:47;;;;;;;4.60;3.22;;;;;;;;;;10696860;22;20050;-84
2022/05/12 15:09:56;;;;;;;4.20;3.38;;;;;;;;;;10562383;28;20040;-84
2022/05/12 15:15:19;;;;;;;5.27;3.67;;;;;;;;;;10565448;28;20051;-83
2022/05/12 15:20:25;;;;;;;6.18;3.30;;;;;;;;;;10548059;28;20054;-86
2022/05/12 15:25:26;;;;;;;5.05;3.55;;;;;;;;;;10562562;28;20060;-84
2022/05/12 15:30:28;;;;;;;6.60;3.22;;;;;;;;;;10561989;28;20118;-84
2022/05/12 15:35:29;;;;;;;5.45;3.20;;;;;;;;;;10548487;28;20060;-85
2022/05/12 15:40:34;;;;;;;6.22;3.20;;;;;;;;;;10562098;28;20028;-85
2022/05/12 15:45:35;;;;;;;3.90;3.30;;;;;;;;;;10559442;28;20032;-84
2022/05/12 15:50:37;;;;;;;7.35;2.80;;;;;;;;;;10561486;28;20099;-84
2022/05/12 15:55:38;;;;;;;3.63;2.60;;;;;;;;;;10561068;28;20024;-84
2022/05/12 16:00:43;;;;;;;4.05;2.53;;;;;;;;;;10563671;28;20028;-84
2022/05/12 16:05:46;;;;;;;5.35;2.58;;;;;;;;;;10565213;28;20028;-83
2022/05/12 16:10:51;;;;;;;5.60;2.60;;;;;;;;;;10562102;28;20073;-84
2022/05/12 16:15:53;;;;;;;5.72;2.80;;;;;;;;;;10559300;28;20020;-85
2022/05/12 16:20:57;;;;;;;7.45;2.45;;;;;;;;;;10542791;28;20043;-83
2022/05/12 16:26:18;;;;;;;3.28;2.50;;;;;;;;;;10560861;28;20047;-83
2022/05/12 16:31:19;;;;;;;4.93;2.30;;;;;;;;;;10560816;28;20024;-82
